Weyauwega, WI

11:33 AM CST on February 28, 2015 (GMT -0600)
Waupaca Municipal | Change Station
CLOSE
Current Station
Airport
Location: Waupaca,
Elevation: 827 ft
Nearby Weather Stations

Elev 827 ft 44.33 °N, 89.02 °W | Updated 18 minutes ago

Clear
Clear
18 °F
Feels Like 13 °F
N
4
Wind Variable Wind from SSW

Today
High -- | Low -- °F
--% Chance of Precip.
Yesterday
High -- | Low -- °F
Precip. -- in
6:34 AM 5:42 PM
Waxing Gibbous, 79% visible
Pressure 30.62 in
Visibility 10.0 miles
Clouds Clear
Windchill 13 °F
Dew Point -3 °F
Humidity 39%
Rainfall 0.00 in
Snow Depth Not available.
UV 4 out of 12
Pollen .40 out of 12
Air Quality Not available.
Flu Activity Not available.
METAR KPCZ 281715Z AUTO 20003KT 10SM CLR M08/M19 A3062 RMK AO2 T10761194

More Conditions Fewer Conditions

Pressure 30.62 in
Visibility 10.0 miles
Clouds Clear
Windchill 13 °F
Dew Point -3 °F
Humidity 39%
Rainfall 0.00 in
Snow Depth Not available.
UV 4 out of 12
Pollen .40 out of 12
Air Quality Not available.
Flu Activity Not available.
METAR KPCZ 281715Z AUTO 20003KT 10SM CLR M08/M19 A3062 RMK AO2 T10761194

More Conditions Fewer Conditions

10-Day Weather Forecast

Almanac

Astronomy

Feb. 28, 2015 Rise Set
Actual Time
Civil Twilight
Nautical Twilight
Astronomical Twilight
Moon
Length of Visible Light
Length of Day
Tomorrow will be .
, % of the Moon is Illuminated

Today's Extremes

State Highs State Lows

Community

WunderPhotos

Upload Photos

1,801,101 photos uploaded!

WunderBlogs® & News

Nearby

Air Quality

  Air Quality AQ Index Pollutant
Not available.

Snow Depth

Station Depth Elevation

Earthquake Activity

City Distance Mag. Time & Date
Minimum magnitude displayed is 2.5.

Coastal Water Temperatures

Place Temperature

Nearby Weather Stations